首页
METAR-TAF:

METAR-TAF

机场 :

克拉根福, 奥地利

纬度: 46-39N, 经度: 014-20E, 海拔: 448米

当前天气观测

该预报发布于44分钟前的13:50 UTC
风速3节,风向,在东转东北东南之间变化
温度 2°C
湿度 60%
气压 1043 hPa
能见度10公里或以上
多云层高于6000英尺

METAR: LOWK 201350Z 10003KT 070V130 9999 BKN060 02/M05 Q1043 R10L/19//95 NOSIG

时间: 15:34 (14:34 UTC)

预报

该预报发布于3小时和19分钟前的11:15 UTC
预报有效从20日的 12点(UTC)到 21日的 12点(UTC)
风速2节,风向多变
能见度10公里或以上
少量云层高于6000英尺
散云层高于15000英尺
短暂存在
从 20日的 12点(UTC)到 20日的 17点(UTC)
风速6节,风向
短暂存在
从 20日的 18点(UTC)到 21日的 08点(UTC)
多云层高于3000英尺

TAF: LOWK 201115Z 2012/2112 VRB02KT 9999 FEW060 SCT150 TX02/2014Z TNM04/2105Z TEMPO 2012/2017 09006KT TEMPO 2018/2108 BKN030

超过4000个机场的气象观测和天气预报(METAR&TAF报告)。

可查询的气象台以黄色和红色小点在地图上表示。

将鼠标移到小点上方,可查看气象台名称。

然后点击查看天气观测和预报。

如需切换地图:点击带黑十字的绿色按钮放大地图;点击带横线的绿色按钮缩小地图;或者点击绿色箭头查看邻近地区的地图。


METAR-TAF: